Time;durP1;ratioP1;P1;durP2;ratioP2;P2;SDS_P1;SDS_P2;PMS_P1;PMS_P2;Temp;Humidity;BMP_temperature;BMP_pressure;BME280_temperature;BME280_humidity;BME280_pressure;Samples;Min_cycle;Max_cycle;Signal;HPM_P1;HPM_P2
2024/04/17 00:01:59;;;;;;;0.93;0.90;;;;;;;;;;5306967;26;20024;-79
2024/04/17 00:04:26;;;;;;;2.50;1.00;;;;;;;;;;5312745;26;20413;-80
2024/04/17 00:06:53;;;;;;;1.10;1.00;;;;;;;;;;5279496;27;20076;-81
2024/04/17 00:09:20;;;;;;;1.00;1.00;;;;;;;;;;5339853;26;20001;-80
2024/04/17 00:11:47;;;;;;;1.55;1.23;;;;;;;;;;5317130;26;20120;-80
2024/04/17 00:14:13;;;;;;;0.65;0.65;;;;;;;;;;5315672;26;20005;-80
2024/04/17 00:16:40;;;;;;;0.60;0.60;;;;;;;;;;5316449;26;20009;-79
2024/04/17 00:19:07;;;;;;;0.60;0.60;;;;;;;;;;5316609;26;20024;-80
2024/04/17 00:21:34;;;;;;;0.50;0.50;;;;;;;;;;5317805;26;20015;-80
2024/04/17 00:24:00;;;;;;;0.52;0.52;;;;;;;;;;5290600;26;20106;-80
2024/04/17 00:26:27;;;;;;;0.77;0.60;;;;;;;;;;5317020;26;20000;-80
2024/04/17 00:28:54;;;;;;;0.75;0.75;;;;;;;;;;5310896;26;20005;-80
2024/04/17 00:31:21;;;;;;;1.75;1.02;;;;;;;;;;5285399;26;20006;-80
2024/04/17 00:33:47;;;;;;;0.85;0.63;;;;;;;;;;5292825;26;20037;-80
2024/04/17 00:36:14;;;;;;;0.68;0.68;;;;;;;;;;5347658;26;20004;-80
2024/04/17 00:38:41;;;;;;;1.00;0.70;;;;;;;;;;5337847;26;20016;-81
2024/04/17 00:41:08;;;;;;;0.60;0.60;;;;;;;;;;5319204;26;20005;-82
2024/04/17 00:43:34;;;;;;;0.90;0.60;;;;;;;;;;5325342;26;20005;-80
2024/04/17 00:46:01;;;;;;;0.98;0.70;;;;;;;;;;5323766;26;20001;-81
2024/04/17 00:48:28;;;;;;;1.13;1.05;;;;;;;;;;5277563;26;20001;-81
2024/04/17 00:50:56;;;;;;;1.00;0.90;;;;;;;;;;5290455;26;20005;-82
2024/04/17 00:53:27;;;;;;;5.60;1.27;;;;;;;;;;5278857;26;20055;-80
2024/04/17 00:55:54;;;;;;;1.20;1.05;;;;;;;;;;5339637;26;20016;-81
2024/04/17 00:58:21;;;;;;;1.60;1.50;;;;;;;;;;5294925;26;20577;-81
2024/04/17 01:00:48;;;;;;;1.30;1.20;;;;;;;;;;5319445;26;20005;-81
2024/04/17 01:03:15;;;;;;;3.25;1.13;;;;;;;;;;5318460;26;20049;-81
2024/04/17 01:05:42;;;;;;;1.67;1.50;;;;;;;;;;5282156;26;20005;-80
2024/04/17 01:08:10;;;;;;;3.28;2.22;;;;;;;;;;5289654;26;20013;-80
2024/04/17 01:10:36;;;;;;;1.87;1.70;;;;;;;;;;5317808;26;20505;-80
2024/04/17 01:13:04;;;;;;;2.25;1.85;;;;;;;;;;5314986;26;20082;-81
2024/04/17 01:15:30;;;;;;;1.77;1.67;;;;;;;;;;5311493;26;20012;-79
2024/04/17 01:17:58;;;;;;;2.53;1.83;;;;;;;;;;5341944;26;20008;-79
2024/04/17 01:20:25;;;;;;;2.85;2.05;;;;;;;;;;5294429;26;20017;-79
2024/04/17 01:22:51;;;;;;;2.17;1.83;;;;;;;;;;5323691;26;20056;-81
2024/04/17 01:25:18;;;;;;;4.80;2.42;;;;;;;;;;5343494;26;20005;-78
2024/04/17 01:27:45;;;;;;;2.72;2.08;;;;;;;;;;5316167;26;20051;-78
2024/04/17 01:30:12;;;;;;;1.85;1.75;;;;;;;;;;5315233;26;20463;-81
2024/04/17 01:32:39;;;;;;;2.75;1.70;;;;;;;;;;5276134;26;20374;-81
2024/04/17 01:35:06;;;;;;;3.88;1.50;;;;;;;;;;5315025;26;20004;-81
2024/04/17 01:37:32;;;;;;;1.40;1.30;;;;;;;;;;5313308;26;20017;-79
2024/04/17 01:39:59;;;;;;;1.77;1.55;;;;;;;;;;5315168;26;20024;-80
2024/04/17 01:42:26;;;;;;;2.05;1.60;;;;;;;;;;5314235;26;20016;-80
2024/04/17 01:44:52;;;;;;;1.85;1.75;;;;;;;;;;5288497;26;20017;-80
2024/04/17 01:47:19;;;;;;;1.65;1.48;;;;;;;;;;5344362;26;19997;-80
2024/04/17 01:49:46;;;;;;;3.53;1.40;;;;;;;;;;5291187;26;20001;-80
2024/04/17 01:52:13;;;;;;;1.60;1.50;;;;;;;;;;5319671;26;20012;-80
2024/04/17 01:54:39;;;;;;;1.88;1.65;;;;;;;;;;5324530;26;19997;-80
2024/04/17 01:57:06;;;;;;;1.65;1.55;;;;;;;;;;5353501;26;20008;-77
2024/04/17 01:59:33;;;;;;;1.90;1.80;;;;;;;;;;5301721;26;20006;-77
2024/04/17 02:02:00;;;;;;;1.85;1.75;;;;;;;;;;5318760;26;20013;-78
2024/04/17 02:04:27;;;;;;;3.00;1.77;;;;;;;;;;5315458;26;20482;-77
2024/04/17 02:06:53;;;;;;;2.45;2.15;;;;;;;;;;5314925;26;20005;-77
2024/04/17 02:09:20;;;;;;;2.97;2.53;;;;;;;;;;5314880;26;20021;-78
2024/04/17 02:11:47;;;;;;;2.35;2.15;;;;;;;;;;5283232;27;20043;-77
2024/04/17 02:14:13;;;;;;;3.85;2.40;;;;;;;;;;5341689;26;20005;-78
2024/04/17 02:16:40;;;;;;;2.95;2.10;;;;;;;;;;5288023;26;20005;-78
2024/04/17 02:19:07;;;;;;;3.38;2.35;;;;;;;;;;5317529;26;20004;-78
2024/04/17 02:21:33;;;;;;;6.55;3.42;;;;;;;;;;5306505;26;20020;-78
2024/04/17 02:24:00;;;;;;;4.13;2.80;;;;;;;;;;5318699;26;20005;-77
2024/04/17 02:26:27;;;;;;;5.13;3.08;;;;;;;;;;5280684;26;20025;-78
2024/04/17 02:28:54;;;;;;;2.97;2.78;;;;;;;;;;5321024;26;20020;-78
2024/04/17 02:31:20;;;;;;;5.53;3.20;;;;;;;;;;5291340;26;20052;-78
2024/04/17 02:33:47;;;;;;;4.95;3.35;;;;;;;;;;5316276;26;20035;-78
2024/04/17 02:36:14;;;;;;;5.30;3.90;;;;;;;;;;5316857;26;20084;-79
2024/04/17 02:38:40;;;;;;;4.03;3.63;;;;;;;;;;5318069;26;20008;-79
2024/04/17 02:41:07;;;;;;;5.03;3.85;;;;;;;;;;5316711;26;20001;-78
2024/04/17 02:43:34;;;;;;;5.60;3.85;;;;;;;;;;5345370;26;20398;-78
2024/04/17 02:46:01;;;;;;;5.35;4.60;;;;;;;;;;5279202;27;20020;-78
2024/04/17 02:48:27;;;;;;;5.93;4.10;;;;;;;;;;5315510;26;19997;-79
2024/04/17 02:50:54;;;;;;;5.43;3.75;;;;;;;;;;5318897;26;20001;-79
2024/04/17 02:53:21;;;;;;;3.58;3.28;;;;;;;;;;5318242;26;20005;-81
2024/04/17 02:55:48;;;;;;;3.45;2.67;;;;;;;;;;5317498;26;20103;-80
2024/04/17 02:58:14;;;;;;;3.47;3.03;;;;;;;;;;5321302;26;20012;-80
2024/04/17 03:00:41;;;;;;;3.75;3.33;;;;;;;;;;5317638;26;20012;-80
2024/04/17 03:03:08;;;;;;;3.90;3.22;;;;;;;;;;5322070;26;20059;-81
2024/04/17 03:05:35;;;;;;;3.58;3.20;;;;;;;;;;5300628;26;20044;-81
2024/04/17 03:08:02;;;;;;;4.00;2.55;;;;;;;;;;5353315;26;20000;-80
2024/04/17 03:10:29;;;;;;;4.22;2.97;;;;;;;;;;5293598;26;20005;-80
2024/04/17 03:12:55;;;;;;;3.03;2.67;;;;;;;;;;5312991;26;20005;-79
2024/04/17 03:15:22;;;;;;;3.60;2.90;;;;;;;;;;5318945;26;20005;-80
2024/04/17 03:17:49;;;;;;;3.60;2.90;;;;;;;;;;5348096;26;20005;-79
2024/04/17 03:20:16;;;;;;;3.00;2.60;;;;;;;;;;5285787;26;20025;-79
2024/04/17 03:22:42;;;;;;;4.32;3.33;;;;;;;;;;5319735;26;20005;-79
2024/04/17 03:25:10;;;;;;;4.90;2.92;;;;;;;;;;5320031;26;20016;-80
2024/04/17 03:27:37;;;;;;;3.78;3.35;;;;;;;;;;5321851;26;20439;-80
2024/04/17 03:30:04;;;;;;;5.30;4.10;;;;;;;;;;5284081;27;20024;-78
2024/04/17 03:32:30;;;;;;;5.20;4.20;;;;;;;;;;5300024;26;20015;-78
2024/04/17 03:34:57;;;;;;;5.72;4.68;;;;;;;;;;5315913;26;20037;-83
2024/04/17 03:37:24;;;;;;;5.18;4.50;;;;;;;;;;5289449;26;20020;-82
2024/04/17 03:39:51;;;;;;;5.95;4.35;;;;;;;;;;5321653;26;20005;-82
2024/04/17 03:42:17;;;;;;;6.68;4.32;;;;;;;;;;5319387;26;20728;-82
2024/04/17 03:44:48;;;;;;;7.90;5.30;;;;;;;;;;5348151;26;20024;-82
2024/04/17 03:47:15;;;;;;;6.63;5.00;;;;;;;;;;5318735;26;20005;-81
2024/04/17 03:49:42;;;;;;;6.43;4.85;;;;;;;;;;5320983;26;20349;-84
2024/04/17 03:52:09;;;;;;;5.60;4.15;;;;;;;;;;5319622;26;20005;-84
2024/04/17 03:54:36;;;;;;;6.32;4.03;;;;;;;;;;5301050;26;20086;-82
2024/04/17 03:57:02;;;;;;;4.90;3.92;;;;;;;;;;5324089;26;20021;-82
2024/04/17 03:59:29;;;;;;;5.10;4.40;;;;;;;;;;5337981;26;19997;-82
2024/04/17 04:01:56;;;;;;;5.50;4.57;;;;;;;;;;5327406;26;20484;-83
2024/04/17 04:04:23;;;;;;;6.20;4.30;;;;;;;;;;5328687;26;20009;-84
2024/04/17 04:06:50;;;;;;;5.97;4.63;;;;;;;;;;5328612;26;20004;-83
2024/04/17 04:09:17;;;;;;;6.28;4.20;;;;;;;;;;5323137;26;20051;-82
2024/04/17 04:11:43;;;;;;;8.43;5.00;;;;;;;;;;5322440;26;20000;-83
2024/04/17 04:14:10;;;;;;;7.15;4.82;;;;;;;;;;5293414;26;20005;-85
2024/04/17 04:16:37;;;;;;;8.00;5.43;;;;;;;;;;5328041;26;20005;-83
2024/04/17 04:19:04;;;;;;;8.43;6.38;;;;;;;;;;5297892;26;20410;-83
2024/04/17 04:21:30;;;;;;;8.88;6.75;;;;;;;;;;5323125;26;20012;-84
2024/04/17 04:23:57;;;;;;;7.15;5.15;;;;;;;;;;5351921;26;20355;-84
2024/04/17 04:26:24;;;;;;;9.18;5.85;;;;;;;;;;5349824;26;20004;-81
2024/04/17 04:28:51;;;;;;;6.13;5.00;;;;;;;;;;5324469;26;20036;-81
2024/04/17 04:31:17;;;;;;;6.10;4.75;;;;;;;;;;5327114;26;20055;-81
2024/04/17 04:33:44;;;;;;;6.35;4.63;;;;;;;;;;5323097;26;20016;-82
2024/04/17 04:36:11;;;;;;;5.68;4.75;;;;;;;;;;5323134;26;20016;-81
2024/04/17 04:38:38;;;;;;;6.68;4.75;;;;;;;;;;5322518;26;20360;-80
2024/04/17 04:41:04;;;;;;;6.85;4.88;;;;;;;;;;5336533;26;20525;-80
2024/04/17 04:43:31;;;;;;;5.95;4.55;;;;;;;;;;5323300;26;20009;-81
2024/04/17 04:45:58;;;;;;;6.88;5.10;;;;;;;;;;5322506;26;20012;-81
2024/04/17 04:48:25;;;;;;;7.22;5.07;;;;;;;;;;5327374;26;20463;-81
2024/04/17 04:50:55;;;;;;;7.38;4.97;;;;;;;;;;5328707;26;20011;-83
2024/04/17 04:53:22;;;;;;;7.07;4.70;;;;;;;;;;5337113;26;20004;-84
2024/04/17 04:55:58;;;;;;;9.85;5.05;;;;;;;;;;5288104;27;20021;-81
2024/04/17 04:58:25;;;;;;;6.25;5.28;;;;;;;;;;5319687;26;20005;-80
2024/04/17 05:00:52;;;;;;;6.55;5.28;;;;;;;;;;5321230;26;20009;-81
2024/04/17 05:03:19;;;;;;;5.72;4.80;;;;;;;;;;5319690;26;20019;-78
2024/04/17 05:05:46;;;;;;;6.00;5.20;;;;;;;;;;5307241;26;20013;-79
2024/04/17 05:08:13;;;;;;;7.60;5.43;;;;;;;;;;5320854;26;20028;-79
2024/04/17 05:10:40;;;;;;;5.90;4.55;;;;;;;;;;5318571;26;20045;-78
2024/04/17 05:13:07;;;;;;;6.88;5.53;;;;;;;;;;5347730;26;20051;-79
2024/04/17 05:15:35;;;;;;;5.78;4.93;;;;;;;;;;5318449;26;20421;-78
2024/04/17 05:18:05;;;;;;;7.90;5.32;;;;;;;;;;5315710;26;20004;-79
2024/04/17 05:20:35;;;;;;;;;;;;;;;;;;5317920;26;20001;-79
2024/04/17 05:23:02;;;;;;;8.45;5.90;;;;;;;;;;5318224;26;19933;-79
2024/04/17 05:25:29;;;;;;;6.07;5.40;;;;;;;;;;5321134;26;20000;-79
2024/04/17 05:27:56;;;;;;;6.65;5.25;;;;;;;;;;5338221;26;20929;-80
2024/04/17 05:30:22;;;;;;;7.85;5.30;;;;;;;;;;5282950;26;20416;-81
2024/04/17 05:32:49;;;;;;;6.35;5.28;;;;;;;;;;5320147;26;20009;-81
2024/04/17 05:35:16;;;;;;;6.57;5.65;;;;;;;;;;5320172;26;20008;-81
2024/04/17 05:37:43;;;;;;;8.35;5.03;;;;;;;;;;5333783;26;20009;-81
2024/04/17 05:40:10;;;;;;;6.68;5.10;;;;;;;;;;5306222;26;20582;-80
2024/04/17 05:42:36;;;;;;;7.45;4.88;;;;;;;;;;5320464;26;20005;-81
2024/04/17 05:45:03;;;;;;;10.30;5.13;;;;;;;;;;5314224;26;20014;-81
2024/04/17 05:47:31;;;;;;;6.35;5.10;;;;;;;;;;5319194;26;20015;-80
2024/04/17 05:49:58;;;;;;;7.03;5.38;;;;;;;;;;5316623;26;20005;-80
2024/04/17 05:52:30;;;;;;;7.75;5.22;;;;;;;;;;5321667;26;20056;-81
2024/04/17 05:54:57;;;;;;;7.43;5.53;;;;;;;;;;5332490;26;20001;-81
2024/04/17 05:57:24;;;;;;;7.53;5.68;;;;;;;;;;5321831;26;20009;-82
2024/04/17 05:59:50;;;;;;;8.88;5.93;;;;;;;;;;5321277;26;20455;-83
2024/04/17 06:02:17;;;;;;;9.00;6.38;;;;;;;;;;5338197;26;20085;-83
2024/04/17 06:04:44;;;;;;;11.00;7.22;;;;;;;;;;5322644;26;20004;-83
2024/04/17 06:07:11;;;;;;;11.10;6.40;;;;;;;;;;5351411;26;20009;-82
2024/04/17 06:09:37;;;;;;;9.10;6.75;;;;;;;;;;5317167;26;20019;-82
2024/04/17 06:12:05;;;;;;;8.75;6.95;;;;;;;;;;5317259;26;20488;-80
2024/04/17 06:14:32;;;;;;;9.43;7.35;;;;;;;;;;5322941;26;20005;-83
2024/04/17 06:16:58;;;;;;;10.90;7.63;;;;;;;;;;5335966;26;20009;-87
2024/04/17 06:19:25;;;;;;;9.88;7.28;;;;;;;;;;5330508;26;20433;-80
2024/04/17 06:21:52;;;;;;;11.15;7.93;;;;;;;;;;5328979;26;20023;-84
2024/04/17 06:24:19;;;;;;;11.27;7.70;;;;;;;;;;5283718;26;20005;-79
2024/04/17 06:26:46;;;;;;;10.65;7.68;;;;;;;;;;5311295;26;20019;-76
2024/04/17 06:29:12;;;;;;;10.82;8.05;;;;;;;;;;5308639;26;20072;-76
2024/04/17 06:31:39;;;;;;;9.73;7.40;;;;;;;;;;5311305;26;20463;-77
2024/04/17 06:34:06;;;;;;;8.43;6.40;;;;;;;;;;5311129;26;20566;-77
2024/04/17 06:36:33;;;;;;;7.45;5.75;;;;;;;;;;5311223;26;20009;-74
2024/04/17 06:39:01;;;;;;;8.27;5.13;;;;;;;;;;5310024;26;20091;-76
2024/04/17 06:41:29;;;;;;;5.28;4.28;;;;;;;;;;5311065;26;20540;-78
2024/04/17 06:44:10;;;;;;;5.38;4.30;;;;;;;;;;5314317;26;20009;-77
2024/04/17 06:46:37;;;;;;;6.40;4.10;;;;;;;;;;5311311;26;20001;-77
2024/04/17 06:49:03;;;;;;;5.80;4.20;;;;;;;;;;5310170;26;20041;-75
2024/04/17 06:51:30;;;;;;;5.38;4.65;;;;;;;;;;5312814;26;20016;-77
2024/04/17 06:53:57;;;;;;;6.18;4.82;;;;;;;;;;5311417;26;20019;-76
2024/04/17 06:56:26;;;;;;;4.60;4.07;;;;;;;;;;5311133;26;20008;-77
2024/04/17 06:58:53;;;;;;;5.82;4.57;;;;;;;;;;5305323;26;20001;-77
2024/04/17 07:01:19;;;;;;;6.18;4.50;;;;;;;;;;5308248;26;20005;-78
2024/04/17 07:03:46;;;;;;;5.82;4.55;;;;;;;;;;5313604;26;20005;-80
2024/04/17 07:06:13;;;;;;;4.70;4.20;;;;;;;;;;5313967;26;20017;-78
2024/04/17 07:08:40;;;;;;;5.32;4.45;;;;;;;;;;5311249;26;20015;-77
2024/04/17 07:11:07;;;;;;;5.20;4.35;;;;;;;;;;5311505;26;20009;-78
2024/04/17 07:13:34;;;;;;;6.53;4.68;;;;;;;;;;5311984;26;20029;-78
2024/04/17 07:16:01;;;;;;;5.72;3.90;;;;;;;;;;5325329;26;20012;-78
2024/04/17 07:18:27;;;;;;;4.65;3.78;;;;;;;;;;5328074;26;20470;-77
2024/04/17 07:20:54;;;;;;;4.68;3.60;;;;;;;;;;5314452;26;20016;-80
2024/04/17 07:23:21;;;;;;;4.75;4.07;;;;;;;;;;5311649;26;20811;-78
2024/04/17 07:25:49;;;;;;;4.07;3.67;;;;;;;;;;5312461;26;20008;-79
2024/04/17 07:28:16;;;;;;;4.50;3.90;;;;;;;;;;5312111;26;20001;-79
2024/04/17 07:30:42;;;;;;;4.82;2.92;;;;;;;;;;5306748;26;20024;-80
2024/04/17 07:33:09;;;;;;;4.43;3.10;;;;;;;;;;5326584;26;20012;-79
2024/04/17 07:35:38;;;;;;;3.38;3.03;;;;;;;;;;5303073;26;20025;-80
2024/04/17 07:38:05;;;;;;;4.28;2.60;;;;;;;;;;5325087;26;20045;-80
2024/04/17 07:40:32;;;;;;;3.97;3.25;;;;;;;;;;5312207;26;19997;-79
2024/04/17 07:42:59;;;;;;;3.97;3.10;;;;;;;;;;5326969;26;20006;-82
2024/04/17 07:45:25;;;;;;;3.85;3.28;;;;;;;;;;5316247;26;20586;-80
2024/04/17 07:47:52;;;;;;;3.47;3.17;;;;;;;;;;5313539;26;20005;-80
2024/04/17 07:50:19;;;;;;;5.15;4.10;;;;;;;;;;5341279;26;20004;-81
2024/04/17 07:52:46;;;;;;;4.15;3.65;;;;;;;;;;5309652;26;20005;-78
2024/04/17 07:55:12;;;;;;;4.28;3.38;;;;;;;;;;5337168;26;20006;-78
2024/04/17 07:57:39;;;;;;;5.07;3.78;;;;;;;;;;5318452;26;20005;-79
2024/04/17 08:00:06;;;;;;;5.90;4.10;;;;;;;;;;5307540;26;20538;-78
2024/04/17 08:02:33;;;;;;;5.15;4.10;;;;;;;;;;5316640;26;20061;-79
2024/04/17 08:05:00;;;;;;;6.20;4.25;;;;;;;;;;5308041;26;20005;-78
2024/04/17 08:07:27;;;;;;;6.38;4.60;;;;;;;;;;5337705;26;20013;-79
2024/04/17 08:09:54;;;;;;;8.18;5.78;;;;;;;;;;5341150;26;20060;-79
2024/04/17 08:12:20;;;;;;;9.07;6.38;;;;;;;;;;5306032;26;20019;-79
2024/04/17 08:14:47;;;;;;;7.05;5.88;;;;;;;;;;5308589;26;20502;-79
2024/04/17 08:17:14;;;;;;;8.98;6.45;;;;;;;;;;5316820;26;20016;-84
2024/04/17 08:19:41;;;;;;;8.45;6.65;;;;;;;;;;5311816;26;20019;-82
2024/04/17 08:22:08;;;;;;;7.85;6.22;;;;;;;;;;5314012;26;20002;-82
2024/04/17 08:24:35;;;;;;;9.70;7.30;;;;;;;;;;5293229;26;20020;-79
2024/04/17 08:27:02;;;;;;;10.07;7.30;;;;;;;;;;5305456;26;20005;-85
2024/04/17 08:29:29;;;;;;;10.52;7.95;;;;;;;;;;5333512;26;19996;-79
2024/04/17 08:31:57;;;;;;;9.45;7.32;;;;;;;;;;5309896;26;20016;-81
2024/04/17 08:34:24;;;;;;;10.93;7.60;;;;;;;;;;5332316;26;19997;-76
2024/04/17 08:36:51;;;;;;;10.98;7.35;;;;;;;;;;5328083;26;20010;-82
2024/04/17 08:39:18;;;;;;;8.95;6.80;;;;;;;;;;5316636;26;20004;-82
2024/04/17 08:41:48;;;;;;;8.98;7.20;;;;;;;;;;5318315;26;20001;-80
2024/04/17 08:44:18;;;;;;;9.38;6.88;;;;;;;;;;5305453;26;20463;-80
2024/04/17 08:46:45;;;;;;;8.20;6.88;;;;;;;;;;5309367;26;20009;-82
2024/04/17 08:49:13;;;;;;;8.63;6.47;;;;;;;;;;5320439;26;20012;-83
2024/04/17 08:51:40;;;;;;;8.50;6.53;;;;;;;;;;5341580;26;20216;-83
2024/04/17 08:54:07;;;;;;;11.75;7.22;;;;;;;;;;5329557;26;20031;-82
2024/04/17 08:56:34;;;;;;;7.30;5.47;;;;;;;;;;5319621;26;20044;-83
2024/04/17 08:59:01;;;;;;;7.63;5.78;;;;;;;;;;5325576;26;20016;-82
2024/04/17 09:01:28;;;;;;;5.75;5.00;;;;;;;;;;5311448;26;20028;-83
2024/04/17 09:03:56;;;;;;;5.80;4.72;;;;;;;;;;5334645;26;20033;-82
2024/04/17 09:06:23;;;;;;;8.00;5.22;;;;;;;;;;5304526;26;20076;-81
2024/04/17 09:08:50;;;;;;;8.95;5.03;;;;;;;;;;5321218;26;20009;-81
2024/04/17 09:11:16;;;;;;;8.40;5.47;;;;;;;;;;5336392;26;20494;-80
2024/04/17 09:13:43;;;;;;;8.15;4.82;;;;;;;;;;5342718;26;20005;-81
2024/04/17 09:16:10;;;;;;;5.25;4.75;;;;;;;;;;5343447;26;20029;-80
2024/04/17 09:18:37;;;;;;;5.35;4.68;;;;;;;;;;5290839;26;20023;-80
2024/04/17 09:21:05;;;;;;;5.68;4.20;;;;;;;;;;5286845;26;20079;-80
2024/04/17 09:23:32;;;;;;;7.82;5.35;;;;;;;;;;5339881;26;20000;-80
2024/04/17 09:25:59;;;;;;;8.93;5.25;;;;;;;;;;5306932;26;20057;-81
2024/04/17 09:28:26;;;;;;;7.50;5.43;;;;;;;;;;5338889;26;20079;-81
2024/04/17 09:30:53;;;;;;;8.30;6.53;;;;;;;;;;5330099;26;20008;-82
2024/04/17 09:33:20;;;;;;;8.77;6.18;;;;;;;;;;5315305;26;20001;-81
2024/04/17 09:35:47;;;;;;;8.75;6.25;;;;;;;;;;5341099;26;20005;-81
2024/04/17 09:38:17;;;;;;;11.65;6.20;;;;;;;;;;5306638;26;20087;-76
2024/04/17 09:40:44;;;;;;;6.20;5.35;;;;;;;;;;5294395;26;20044;-75
2024/04/17 09:43:25;;;;;;;6.53;5.43;;;;;;;;;;5313590;26;20053;-76
2024/04/17 09:46:00;;;;;;;6.93;4.97;;;;;;;;;;5307510;26;20019;-75
2024/04/17 09:48:28;;;;;;;6.55;4.57;;;;;;;;;;5333534;26;20052;-75
2024/04/17 09:50:59;;;;;;;5.68;4.68;;;;;;;;;;5331389;26;20010;-75
2024/04/17 09:53:29;;;;;;;8.68;5.13;;;;;;;;;;5322979;26;20008;-74
2024/04/17 09:56:04;;;;;;;5.97;5.13;;;;;;;;;;5302417;26;20013;-76
2024/04/17 09:58:34;;;;;;;6.20;4.68;;;;;;;;;;5299620;26;20759;-76
2024/04/17 10:01:02;;;;;;;8.73;5.63;;;;;;;;;;5310632;26;20002;-76
2024/04/17 10:03:31;;;;;;;7.32;4.65;;;;;;;;;;5272024;26;20024;-76
2024/04/17 10:06:01;;;;;;;7.32;4.22;;;;;;;;;;5301544;26;20013;-75
2024/04/17 10:08:30;;;;;;;5.78;3.97;;;;;;;;;;5305519;26;20015;-75
2024/04/17 10:10:57;;;;;;;4.50;3.83;;;;;;;;;;5312108;26;20005;-75
2024/04/17 10:13:25;;;;;;;5.38;3.72;;;;;;;;;;5310092;26;20020;-74
2024/04/17 10:15:53;;;;;;;7.10;3.50;;;;;;;;;;5336085;26;20008;-75
2024/04/17 10:18:21;;;;;;;8.98;4.25;;;;;;;;;;5335127;26;20016;-74
2024/04/17 10:20:48;;;;;;;4.95;4.47;;;;;;;;;;5304173;26;20484;-75
2024/04/17 10:23:16;;;;;;;7.05;3.95;;;;;;;;;;5333140;26;20024;-75
2024/04/17 10:25:57;;;;;;;4.57;4.05;;;;;;;;;;5308882;26;20033;-75
2024/04/17 10:28:24;;;;;;;8.27;4.32;;;;;;;;;;5310672;26;20005;-75
2024/04/17 10:30:58;;;;;;;9.65;5.18;;;;;;;;;;5327431;26;20015;-75
2024/04/17 10:33:34;;;;;;;5.40;3.42;;;;;;;;;;5318701;26;20031;-75
2024/04/17 10:36:02;;;;;;;11.05;4.47;;;;;;;;;;5330869;26;20008;-76
2024/04/17 10:38:30;;;;;;;7.35;4.30;;;;;;;;;;5333442;26;20074;-76
2024/04/17 10:41:03;;;;;;;9.73;4.47;;;;;;;;;;5322551;26;20459;-76
2024/04/17 10:43:34;;;;;;;8.15;4.00;;;;;;;;;;5334275;26;20017;-76
2024/04/17 10:46:06;;;;;;;8.20;4.80;;;;;;;;;;5334318;26;20419;-76
2024/04/17 10:48:47;;;;;;;6.75;4.55;;;;;;;;;;5301527;26;20060;-74
2024/04/17 10:51:15;;;;;;;8.68;4.15;;;;;;;;;;5306576;26;20005;-75
2024/04/17 10:53:46;;;;;;;6.53;4.22;;;;;;;;;;5313180;26;20086;-76
2024/04/17 10:56:14;;;;;;;5.38;3.88;;;;;;;;;;5275254;26;20008;-75
2024/04/17 10:58:42;;;;;;;4.50;3.70;;;;;;;;;;5307440;26;20009;-76
2024/04/17 11:01:12;;;;;;;6.65;3.53;;;;;;;;;;5323894;26;20411;-75
2024/04/17 11:03:39;;;;;;;7.03;4.22;;;;;;;;;;5323305;26;20001;-76
2024/04/17 11:06:07;;;;;;;5.00;3.33;;;;;;;;;;5310988;26;20012;-76
2024/04/17 11:08:44;;;;;;;5.15;3.70;;;;;;;;;;5306734;26;20002;-76
2024/04/17 11:11:24;;;;;;;3.88;3.45;;;;;;;;;;5302492;26;20427;-75
2024/04/17 11:13:52;;;;;;;6.85;3.95;;;;;;;;;;5302699;26;20023;-74
2024/04/17 11:16:20;;;;;;;4.32;3.30;;;;;;;;;;5334245;26;20006;-76
2024/04/17 11:18:47;;;;;;;9.52;3.53;;;;;;;;;;5308542;26;20491;-79
2024/04/17 11:21:14;;;;;;;10.30;4.18;;;;;;;;;;5335261;26;20005;-79
2024/04/17 11:23:42;;;;;;;8.23;3.25;;;;;;;;;;5310526;26;20060;-79
2024/04/17 11:26:10;;;;;;;4.53;3.15;;;;;;;;;;5331614;26;20029;-80
2024/04/17 11:28:41;;;;;;;6.70;2.70;;;;;;;;;;5312216;26;20475;-79
2024/04/17 11:31:09;;;;;;;3.58;2.45;;;;;;;;;;5292363;26;20017;-79
2024/04/17 11:33:39;;;;;;;4.20;2.70;;;;;;;;;;5298678;26;19998;-80
2024/04/17 11:36:14;;;;;;;6.85;3.92;;;;;;;;;;5315983;26;20684;-79
2024/04/17 11:38:45;;;;;;;5.15;3.60;;;;;;;;;;5314296;26;20083;-80
2024/04/17 11:41:15;;;;;;;5.93;4.22;;;;;;;;;;5338794;26;20034;-79
2024/04/17 11:43:44;;;;;;;5.60;3.50;;;;;;;;;;5311405;26;20471;-80
2024/04/17 11:46:17;;;;;;;5.07;3.72;;;;;;;;;;5337502;26;20005;-81
2024/04/17 11:48:45;;;;;;;;;;;;;;;;;;5307033;26;20024;-79
2024/04/17 11:51:12;;;;;;;5.10;2.97;;;;;;;;;;5331284;26;19929;-80
2024/04/17 11:53:39;;;;;;;3.30;2.90;;;;;;;;;;5312138;26;20013;-80
2024/04/17 11:56:09;;;;;;;7.30;3.72;;;;;;;;;;5330189;26;20016;-79
2024/04/17 11:58:36;;;;;;;5.20;3.90;;;;;;;;;;5312403;26;20033;-80
2024/04/17 12:01:03;;;;;;;4.88;3.55;;;;;;;;;;5303002;26;20083;-85
2024/04/17 12:03:31;;;;;;;8.18;4.70;;;;;;;;;;5299883;26;20020;-79
2024/04/17 12:06:04;;;;;;;7.82;3.70;;;;;;;;;;5328642;26;20344;-79
2024/04/17 12:08:31;;;;;;;6.38;3.72;;;;;;;;;;5329935;26;20005;-79
2024/04/17 12:11:01;;;;;;;7.15;4.72;;;;;;;;;;5306598;26;20009;-81
2024/04/17 12:13:28;;;;;;;7.05;4.80;;;;;;;;;;5351205;26;20004;-81
2024/04/17 12:15:55;;;;;;;6.85;4.40;;;;;;;;;;5342629;26;20004;-81
2024/04/17 12:18:24;;;;;;;3.72;2.85;;;;;;;;;;5345909;26;20013;-82
2024/04/17 12:20:51;;;;;;;3.65;3.13;;;;;;;;;;5296739;26;20013;-82
2024/04/17 12:23:19;;;;;;;5.72;3.08;;;;;;;;;;5322358;26;20019;-79
2024/04/17 12:28:31;;;;;;;2.80;2.60;;;;;;;;;;5346075;26;20019;-83
2024/04/17 12:30:58;;;;;;;6.50;2.60;;;;;;;;;;5309706;26;20021;-82
2024/04/17 12:33:25;;;;;;;5.35;2.63;;;;;;;;;;5311897;26;20467;-82
2024/04/17 12:35:52;;;;;;;3.03;2.17;;;;;;;;;;5313180;26;20020;-82
2024/04/17 12:38:19;;;;;;;1.95;1.60;;;;;;;;;;5343906;26;20065;-80
2024/04/17 12:40:46;;;;;;;4.85;1.50;;;;;;;;;;5318394;26;20005;-80
2024/04/17 12:43:15;;;;;;;3.17;1.65;;;;;;;;;;5321141;26;20001;-81
2024/04/17 12:45:42;;;;;;;3.50;1.90;;;;;;;;;;5316300;26;20699;-80
2024/04/17 12:48:10;;;;;;;3.20;1.58;;;;;;;;;;5343201;26;20001;-79
2024/04/17 12:50:38;;;;;;;3.75;1.25;;;;;;;;;;5327355;26;20007;-80
2024/04/17 12:53:06;;;;;;;2.33;1.55;;;;;;;;;;5338408;26;20013;-79
2024/04/17 12:55:34;;;;;;;4.13;1.50;;;;;;;;;;5335955;26;20001;-79
2024/04/17 12:58:01;;;;;;;2.45;1.38;;;;;;;;;;5340325;26;20335;-80
2024/04/17 13:00:30;;;;;;;3.00;1.05;;;;;;;;;;5337854;26;20019;-80
2024/04/17 13:02:58;;;;;;;2.67;1.00;;;;;;;;;;5338663;26;20029;-80
2024/04/17 13:05:26;;;;;;;1.35;0.80;;;;;;;;;;5339863;26;20351;-80
2024/04/17 13:07:53;;;;;;;1.67;0.75;;;;;;;;;;5318596;26;20059;-79
2024/04/17 13:10:20;;;;;;;5.38;1.02;;;;;;;;;;5319576;26;20005;-79
2024/04/17 13:12:47;;;;;;;7.55;1.40;;;;;;;;;;5319837;26;20015;-79
2024/04/17 13:15:13;;;;;;;2.55;1.05;;;;;;;;;;5345598;26;20375;-79
2024/04/17 13:17:40;;;;;;;3.65;1.15;;;;;;;;;;5315712;26;20059;-80
2024/04/17 13:20:07;;;;;;;2.60;1.13;;;;;;;;;;5327867;26;20001;-80
2024/04/17 13:22:34;;;;;;;1.88;0.90;;;;;;;;;;5317359;26;20007;-79
2024/04/17 13:25:02;;;;;;;1.88;1.08;;;;;;;;;;5331762;26;20543;-80
2024/04/17 13:27:29;;;;;;;3.20;1.23;;;;;;;;;;5317975;26;20038;-80
2024/04/17 13:29:56;;;;;;;3.03;1.48;;;;;;;;;;5302936;26;20075;-80
2024/04/17 13:32:23;;;;;;;5.38;1.40;;;;;;;;;;5336955;26;20026;-79
2024/04/17 13:34:55;;;;;;;1.80;1.20;;;;;;;;;;5340619;26;20359;-79
2024/04/17 13:37:23;;;;;;;2.92;1.70;;;;;;;;;;5318645;26;20015;-81
2024/04/17 13:39:51;;;;;;;3.65;1.42;;;;;;;;;;5336680;26;20063;-80
2024/04/17 13:42:17;;;;;;;2.13;1.20;;;;;;;;;;5343494;26;20016;-81
2024/04/17 13:44:45;;;;;;;5.30;1.70;;;;;;;;;;5341924;26;20024;-81
2024/04/17 13:47:11;;;;;;;3.67;1.83;;;;;;;;;;5337917;26;20002;-81
2024/04/17 13:49:38;;;;;;;2.83;1.50;;;;;;;;;;5307770;26;20025;-80
2024/04/17 13:52:05;;;;;;;1.55;1.08;;;;;;;;;;5318962;26;20010;-81
2024/04/17 13:54:32;;;;;;;2.47;1.40;;;;;;;;;;5326510;26;20370;-80
2024/04/17 13:56:59;;;;;;;3.25;1.38;;;;;;;;;;5338695;26;20005;-82
2024/04/17 13:59:26;;;;;;;2.22;1.63;;;;;;;;;;5288064;26;20013;-81
2024/04/17 14:01:52;;;;;;;4.85;1.50;;;;;;;;;;5332693;26;20009;-80
2024/04/17 14:04:19;;;;;;;2.63;1.05;;;;;;;;;;5331544;26;20016;-80
2024/04/17 14:06:46;;;;;;;4.07;2.03;;;;;;;;;;5304156;26;20016;-80
2024/04/17 14:09:12;;;;;;;4.63;1.77;;;;;;;;;;5315370;26;20008;-80
2024/04/17 14:11:39;;;;;;;3.55;1.45;;;;;;;;;;5320120;26;20016;-80
2024/04/17 14:14:06;;;;;;;4.05;1.30;;;;;;;;;;5311248;26;20005;-80
2024/04/17 14:16:33;;;;;;;4.25;1.52;;;;;;;;;;5317287;26;20343;-80
2024/04/17 14:18:59;;;;;;;3.97;1.52;;;;;;;;;;5336098;26;20005;-80
2024/04/17 14:21:26;;;;;;;4.53;1.40;;;;;;;;;;5334523;26;20054;-80
2024/04/17 14:23:53;;;;;;;3.28;1.55;;;;;;;;;;5302748;26;20008;-80
2024/04/17 14:26:24;;;;;;;5.65;1.65;;;;;;;;;;5332509;26;20004;-80
2024/04/17 14:28:51;;;;;;;2.90;1.48;;;;;;;;;;5325920;26;20817;-80
2024/04/17 14:31:18;;;;;;;1.88;1.45;;;;;;;;;;5334440;26;20012;-80
2024/04/17 14:33:45;;;;;;;3.97;1.95;;;;;;;;;;5338356;26;20028;-83
2024/04/17 14:36:13;;;;;;;3.72;1.45;;;;;;;;;;5328633;26;20383;-79
2024/04/17 14:38:41;;;;;;;4.03;1.65;;;;;;;;;;5317954;26;20012;-76
2024/04/17 14:41:09;;;;;;;3.67;1.90;;;;;;;;;;5308939;26;20360;-74
2024/04/17 14:43:36;;;;;;;4.72;2.15;;;;;;;;;;5312537;26;20005;-74
2024/04/17 14:46:03;;;;;;;4.45;2.03;;;;;;;;;;5332153;26;20013;-74
2024/04/17 14:48:32;;;;;;;4.18;2.10;;;;;;;;;;5336686;26;20009;-74